createdAt,value
2023-05-04T00:00:34.689Z,83
2023-05-04T00:20:35.780Z,85
2023-05-04T00:40:36.203Z,86
2023-05-04T00:50:36.324Z,86
2023-05-04T01:00:36.823Z,86
2023-05-04T01:10:37.607Z,87
2023-05-04T02:00:40.422Z,89
2023-05-04T02:20:41.422Z,90
2023-05-04T02:40:42.449Z,91
2023-05-04T03:00:44.241Z,91
2023-05-04T03:40:46.360Z,92
2023-05-04T06:20:53.786Z,90
2023-05-04T06:40:54.422Z,87
2023-05-04T07:00:55.621Z,84
2023-05-04T07:10:56.288Z,83
2023-05-04T07:21:06.357Z,81
2023-05-04T07:30:57.282Z,79
2023-05-04T07:40:57.386Z,78
2023-05-04T07:50:58.170Z,76
2023-05-04T08:00:58.789Z,75
2023-05-04T08:11:08.362Z,74
2023-05-04T08:21:00.158Z,74
2023-05-04T08:31:00.284Z,73
2023-05-04T08:41:00.753Z,72
2023-05-04T08:51:01.571Z,72
2023-05-04T09:01:02.688Z,71
2023-05-04T09:11:02.747Z,70
2023-05-04T09:21:02.865Z,71
2023-05-04T09:31:03.121Z,70
2023-05-04T09:41:03.672Z,68
2023-05-04T09:51:03.813Z,69
2023-05-04T10:01:04.080Z,68
2023-05-04T10:31:06.201Z,66
2023-05-04T10:41:07.054Z,65
2023-05-04T10:51:07.384Z,62
2023-05-04T11:01:08.341Z,63
2023-05-04T11:11:09.320Z,61
2023-05-04T11:21:09.973Z,59
2023-05-04T11:31:10.589Z,58
2023-05-04T11:41:11.106Z,59
2023-05-04T12:01:13.015Z,59
2023-05-04T12:11:13.454Z,59
2023-05-04T12:21:14.342Z,58
2023-05-04T12:31:14.660Z,58
2023-05-04T12:41:15.244Z,56
2023-05-04T12:51:15.625Z,55
2023-05-04T13:01:16.246Z,54
2023-05-04T13:21:17.348Z,51
2023-05-04T13:31:18.287Z,54
2023-05-04T13:51:19.537Z,52
2023-05-04T14:01:19.909Z,52
2023-05-04T14:11:20.727Z,51
2023-05-04T14:21:21.135Z,51
2023-05-04T14:31:21.367Z,50
2023-05-04T14:41:22.105Z,51
2023-05-04T14:51:22.427Z,50
2023-05-04T15:01:23.446Z,51
2023-05-04T15:11:23.544Z,53
2023-05-04T15:21:24.172Z,52
2023-05-04T15:41:25.178Z,52
2023-05-04T16:01:26.549Z,52
2023-05-04T16:21:27.788Z,54
2023-05-04T16:31:28.745Z,54
2023-05-04T16:41:29.203Z,54
2023-05-04T16:51:29.693Z,55
2023-05-04T17:01:30.152Z,55
2023-05-04T17:21:32.284Z,55
2023-05-04T17:41:33.634Z,56
2023-05-04T17:51:34.168Z,56
2023-05-04T18:01:34.599Z,56
2023-05-04T18:11:34.726Z,57
2023-05-04T18:21:35.692Z,58
2023-05-04T18:31:36.581Z,58
2023-05-04T18:41:36.991Z,59
2023-05-04T18:51:37.861Z,59
2023-05-04T19:01:38.530Z,60
2023-05-04T19:11:38.583Z,61
2023-05-04T19:31:39.738Z,63
2023-05-04T19:41:40.421Z,64
2023-05-04T19:51:40.805Z,65
2023-05-04T20:01:41.523Z,66
2023-05-04T20:11:42.617Z,67
2023-05-04T20:21:43.405Z,68
2023-05-04T21:00:19.340Z,74
2023-05-04T21:30:21.421Z,76
2023-05-04T22:30:24.650Z,83
2023-05-04T22:50:25.103Z,85
2023-05-04T23:40:28.058Z,86
